Time;durP1;ratioP1;P1;durP2;ratioP2;P2;SDS_P1;SDS_P2;PMS_P1;PMS_P2;Temp;Humidity;BMP_temperature;BMP_pressure;BME280_temperature;BME280_humidity;BME280_pressure;Samples;Min_cycle;Max_cycle;Signal;HPM_P1;HPM_P2
2022/08/08 00:00:50;;;;;;;2.50;1.20;;;18.20;1.00;;;;;;4932343;29;20489;-74
2022/08/08 00:03:16;;;;;;;1.00;0.90;;;18.20;1.00;;;;;;4936402;29;20470;-74
2022/08/08 00:05:48;;;;;;;2.50;0.90;;;18.20;1.00;;;;;;4917428;29;20432;-74
2022/08/08 00:08:35;;;;;;;0.80;0.80;;;18.20;1.00;;;;;;4936059;29;20372;-74
2022/08/08 00:11:16;;;;;;;1.13;1.00;;;18.20;1.00;;;;;;4939706;29;20461;-74
2022/08/08 00:13:53;;;;;;;3.83;0.97;;;18.20;1.00;;;;;;4938754;29;20970;-74
2022/08/08 00:16:48;;;;;;;3.50;0.90;;;18.20;1.00;;;;;;4947550;29;21029;-77
2022/08/08 00:19:19;;;;;;;1.20;0.73;;;18.10;1.00;;;;;;4940688;29;20421;-77
2022/08/08 00:21:51;;;;;;;1.80;0.83;;;18.10;1.00;;;;;;4950818;29;20499;-77
2022/08/08 00:24:29;;;;;;;0.80;0.80;;;18.10;1.00;;;;;;4943458;29;20469;-77
2022/08/08 00:27:05;;;;;;;1.37;0.97;;;18.20;1.00;;;;;;4951479;28;20984;-77
2022/08/08 00:29:34;;;;;;;0.80;0.80;;;18.10;1.00;;;;;;4975366;28;20470;-78
2022/08/08 00:32:09;;;;;;;2.93;1.33;;;18.10;1.00;;;;;;5019164;28;20401;-74
2022/08/08 00:35:10;;;;;;;2.30;1.10;;;18.20;1.00;;;;;;5024966;28;20431;-74
2022/08/08 00:38:07;;;;;;;1.77;0.90;;;18.20;1.00;;;;;;5026208;28;20952;-74
2022/08/08 00:40:35;;;;;;;1.47;1.00;;;18.20;1.00;;;;;;5024885;28;20481;-74
2022/08/08 00:43:21;;;;;;;1.20;0.73;;;18.20;1.00;;;;;;5016562;28;20422;-74
2022/08/08 00:45:59;;;;;;;1.00;0.90;;;18.10;1.00;;;;;;5025892;28;20430;-77
2022/08/08 00:48:46;;;;;;;3.30;0.87;;;18.10;1.00;;;;;;5033490;28;20430;-77
2022/08/08 00:51:48;;;;;;;1.40;0.93;;;18.00;1.00;;;;;;5021805;28;20402;-77
2022/08/08 00:54:48;;;;;;;0.80;0.80;;;18.00;1.00;;;;;;5027992;28;20434;-77
2022/08/08 00:57:17;;;;;;;0.70;0.70;;;18.00;1.00;;;;;;5028560;28;20776;-77
2022/08/08 01:00:06;;;;;;;1.00;1.00;;;17.90;1.00;;;;;;5029430;28;20415;-77
2022/08/08 01:03:18;;;;;;;0.90;0.80;;;17.90;1.00;;;;;;5026409;28;20517;-74
2022/08/08 01:06:00;;;;;;;2.20;0.90;;;17.80;1.00;;;;;;5017637;28;20400;-74
2022/08/08 01:08:45;;;;;;;1.43;0.90;;;17.80;1.00;;;;;;5025031;28;20425;-74
2022/08/08 01:11:36;;;;;;;1.10;1.00;;;17.70;1.00;;;;;;5016055;28;20921;-74
2022/08/08 01:14:23;;;;;;;6.13;0.87;;;17.60;1.00;;;;;;5021423;28;20404;-74
2022/08/08 01:17:03;;;;;;;0.70;0.70;;;17.60;1.00;;;;;;5027394;28;20960;-74
2022/08/08 01:20:05;;;;;;;2.13;0.97;;;17.60;1.00;;;;;;5022727;28;21006;-74
2022/08/08 01:23:03;;;;;;;3.30;1.00;;;17.50;1.00;;;;;;5015226;28;20455;-74
2022/08/08 01:26:06;;;;;;;1.87;1.00;;;17.50;1.00;;;;;;5023333;28;20445;-74
2022/08/08 01:28:38;;;;;;;1.33;0.97;;;17.40;1.00;;;;;;5034443;28;20420;-74
2022/08/08 01:31:40;;;;;;;0.87;0.87;;;17.40;1.00;;;;;;5029745;28;20414;-74
2022/08/08 01:34:36;;;;;;;3.33;0.90;;;17.40;1.00;;;;;;5027139;28;20392;-74
2022/08/08 01:37:35;;;;;;;1.10;1.00;;;17.40;1.00;;;;;;5025594;28;20428;-74
2022/08/08 01:40:20;;;;;;;1.63;0.70;;;17.30;1.00;;;;;;5024833;28;20966;-75
2022/08/08 01:43:27;;;;;;;2.67;0.90;;;17.30;1.00;;;;;;5017188;28;20474;-74
2022/08/08 01:46:20;;;;;;;2.70;1.00;;;17.30;1.00;;;;;;5018422;28;20404;-74
2022/08/08 01:49:08;;;;;;;0.80;0.80;;;17.30;1.00;;;;;;5020291;28;20415;-74
2022/08/08 01:52:07;;;;;;;2.10;1.00;;;17.20;1.00;;;;;;5015589;28;20789;-74
2022/08/08 01:54:49;;;;;;;1.30;0.90;;;17.20;1.00;;;;;;5022774;28;20424;-74
2022/08/08 01:57:37;;;;;;;1.47;0.93;;;17.20;1.00;;;;;;5020883;28;20405;-74
2022/08/08 02:00:24;;;;;;;1.73;1.03;;;17.20;1.00;;;;;;5014088;28;20438;-75
2022/08/08 02:03:31;;;;;;;1.30;0.90;;;17.20;1.00;;;;;;5017234;28;20432;-77
2022/08/08 02:06:14;;;;;;;2.60;0.83;;;17.10;1.00;;;;;;5019786;28;20422;-77
2022/08/08 02:09:12;;;;;;;1.50;0.80;;;17.10;1.00;;;;;;5020204;28;20431;-77
2022/08/08 02:11:57;;;;;;;2.47;0.83;;;17.10;1.00;;;;;;5019006;28;20779;-77
2022/08/08 02:14:49;;;;;;;1.20;1.10;;;17.20;1.00;;;;;;5015052;28;20889;-77
2022/08/08 02:17:42;;;;;;;0.90;0.80;;;17.20;1.00;;;;;;5016616;28;20818;-77
2022/08/08 02:24:07;;;;;;;0.90;0.80;;;17.20;1.00;;;;;;5013594;28;20407;-77
2022/08/08 02:26:44;;;;;;;1.53;1.43;;;17.10;1.00;;;;;;5018582;28;20417;-77
2022/08/08 02:29:28;;;;;;;0.80;0.80;;;17.20;1.00;;;;;;5014148;28;20383;-77
2022/08/08 02:32:26;;;;;;;1.00;1.00;;;17.20;1.00;;;;;;5016197;28;20467;-77
2022/08/08 02:35:05;;;;;;;1.87;1.10;;;17.20;1.00;;;;;;5020501;28;20436;-77
2022/08/08 02:38:08;;;;;;;2.37;1.00;;;17.20;1.00;;;;;;5016677;28;20450;-77
2022/08/08 02:41:07;;;;;;;1.43;1.27;;;17.20;1.00;;;;;;5023392;28;20466;-77
2022/08/08 02:44:06;;;;;;;1.00;1.00;;;17.20;1.00;;;;;;5016500;28;20472;-77
2022/08/08 02:47:18;;;;;;;3.20;1.10;;;17.20;1.00;;;;;;5028959;28;20416;-77
2022/08/08 02:49:52;;;;;;;1.90;0.90;;;17.20;1.00;;;;;;5030372;28;20429;-77
2022/08/08 02:52:55;;;;;;;4.10;1.00;;;17.10;1.00;;;;;;5022200;28;20424;-78
2022/08/08 02:55:35;;;;;;;0.70;0.70;;;17.10;1.00;;;;;;5021053;28;20530;-77
2022/08/08 02:58:22;;;;;;;2.40;0.80;;;17.10;1.00;;;;;;5028261;28;20390;-77
2022/08/08 03:01:33;;;;;;;1.03;0.87;;;17.10;1.00;;;;;;5026114;28;20617;-77
2022/08/08 03:04:42;;;;;;;2.30;1.10;;;17.10;1.00;;;;;;5020902;28;20396;-77
2022/08/08 03:07:36;;;;;;;1.57;0.90;;;17.00;1.00;;;;;;5026823;28;20439;-77
2022/08/08 03:11:00;;;;;;;0.80;0.80;;;17.00;1.00;;;;;;5026310;28;20425;-77
2022/08/08 03:14:08;;;;;;;3.20;1.00;;;17.00;1.00;;;;;;5028285;28;20467;-77
2022/08/08 03:16:36;;;;;;;1.00;0.90;;;17.00;1.00;;;;;;5026152;28;20439;-75
2022/08/08 03:19:26;;;;;;;1.60;1.00;;;17.00;1.00;;;;;;5022350;28;20432;-75
2022/08/08 03:21:54;;;;;;;1.37;0.93;;;17.10;1.00;;;;;;5010421;28;21025;-75
2022/08/08 03:24:20;;;;;;;1.27;1.00;;;17.00;1.00;;;;;;5015577;28;20425;-74
2022/08/08 03:27:19;;;;;;;3.40;1.10;;;17.00;1.00;;;;;;5025083;28;20422;-74
2022/08/08 03:29:58;;;;;;;3.07;1.10;;;16.90;1.00;;;;;;5024799;28;20196;-74
2022/08/08 03:35:09;;;;;;;2.50;0.90;;;16.90;1.00;;;;;;5027789;28;20497;-75
2022/08/08 03:37:37;;;;;;;1.70;0.90;;;16.90;1.00;;;;;;5017633;28;20478;-75
2022/08/08 03:40:04;;;;;;;1.00;0.90;;;16.80;1.00;;;;;;5004877;28;20464;-74
2022/08/08 03:42:39;;;;;;;1.10;1.00;;;16.80;1.00;;;;;;5018257;28;20421;-74
2022/08/08 03:45:16;;;;;;;0.90;0.90;;;16.80;1.00;;;;;;5027574;28;20910;-75
2022/08/08 03:48:09;;;;;;;1.20;1.03;;;16.80;1.00;;;;;;5031439;28;20414;-77
2022/08/08 03:50:39;;;;;;;1.53;1.07;;;16.70;1.00;;;;;;5024275;28;20414;-79
2022/08/08 03:53:13;;;;;;;0.97;0.93;;;16.70;1.00;;;;;;5015252;28;20386;-77
2022/08/08 03:55:41;;;;;;;1.90;0.93;;;16.70;1.00;;;;;;5024974;28;20482;-78
2022/08/08 03:58:27;;;;;;;3.87;1.13;;;16.70;1.00;;;;;;5022826;28;20390;-77
2022/08/08 04:01:06;;;;;;;1.73;0.90;;;16.60;1.00;;;;;;5031422;28;20891;-77
2022/08/08 04:03:34;;;;;;;1.27;1.00;;;16.60;1.00;;;;;;5029941;28;20460;-78
2022/08/08 04:06:05;;;;;;;2.90;0.90;;;16.60;1.00;;;;;;5025090;28;20399;-78
2022/08/08 04:08:42;;;;;;;3.80;1.17;;;16.60;1.00;;;;;;5016842;28;20423;-77
2022/08/08 04:11:18;;;;;;;1.00;0.80;;;16.60;1.00;;;;;;5027964;28;20453;-78
2022/08/08 04:13:44;;;;;;;3.33;1.10;;;16.60;1.00;;;;;;5025110;28;20405;-78
2022/08/08 04:16:10;;;;;;;3.53;1.07;;;16.60;1.00;;;;;;5034712;28;20542;-78
2022/08/08 04:18:36;;;;;;;3.90;1.10;;;16.60;1.00;;;;;;5036006;28;20189;-78
2022/08/08 04:21:06;;;;;;;1.53;0.90;;;16.60;1.00;;;;;;5033560;28;20657;-78
2022/08/08 04:24:00;;;;;;;1.27;1.13;;;16.60;1.00;;;;;;5023562;28;20434;-77
2022/08/08 04:26:30;;;;;;;4.90;1.20;;;16.60;1.00;;;;;;5019548;28;20430;-79
2022/08/08 04:29:01;;;;;;;2.07;1.00;;;16.60;1.00;;;;;;5015720;28;20391;-79
2022/08/08 04:31:30;;;;;;;1.00;1.00;;;16.60;1.00;;;;;;5026519;28;20421;-78
2022/08/08 04:34:06;;;;;;;3.60;1.10;;;16.60;1.00;;;;;;5014728;28;20760;-78
2022/08/08 04:37:00;;;;;;;1.10;1.00;;;16.60;1.00;;;;;;5024192;28;20966;-78
2022/08/08 04:39:25;;;;;;;1.17;0.90;;;16.70;1.00;;;;;;5021126;28;20452;-78
2022/08/08 04:42:18;;;;;;;3.20;1.00;;;16.70;1.00;;;;;;5025462;28;20391;-77
2022/08/08 04:44:56;;;;;;;1.03;1.03;;;16.80;1.00;;;;;;5022376;28;20211;-78
2022/08/08 04:47:24;;;;;;;2.23;0.93;;;16.80;1.00;;;;;;5032110;28;20898;-77
2022/08/08 04:49:54;;;;;;;1.43;1.20;;;16.80;1.00;;;;;;5020482;28;20391;-76
2022/08/08 04:52:24;;;;;;;1.20;1.03;;;16.80;1.00;;;;;;5023209;28;20427;-78
2022/08/08 04:55:07;;;;;;;2.13;1.00;;;16.90;1.00;;;;;;5035110;28;20451;-78
2022/08/08 04:57:36;;;;;;;1.00;1.00;;;16.90;1.00;;;;;;5018285;28;20408;-77
2022/08/08 05:00:06;;;;;;;1.83;1.07;;;17.00;1.00;;;;;;5025236;28;20421;-77
2022/08/08 05:02:36;;;;;;;6.00;1.40;;;16.90;1.00;;;;;;5030701;28;20507;-77
2022/08/08 05:05:07;;;;;;;3.70;1.40;;;17.00;1.00;;;;;;5027398;28;20807;-77
2022/08/08 05:07:36;;;;;;;7.70;1.20;;;17.00;1.00;;;;;;5017139;28;20463;-77
2022/08/08 05:10:19;;;;;;;1.27;0.90;;;17.10;1.00;;;;;;5015269;28;20420;-77
2022/08/08 05:13:01;;;;;;;2.10;0.90;;;17.10;1.00;;;;;;5020166;28;20425;-77
2022/08/08 05:15:30;;;;;;;1.90;0.90;;;17.10;1.00;;;;;;5027807;28;20459;-77
2022/08/08 05:18:42;;;;;;;10.57;0.97;;;17.20;1.00;;;;;;5032246;28;20430;-77
2022/08/08 05:21:18;;;;;;;2.70;1.20;;;17.30;1.00;;;;;;5026069;28;20418;-78
2022/08/08 05:23:54;;;;;;;1.80;1.10;;;17.30;1.00;;;;;;5032721;28;20427;-77
2022/08/08 05:26:30;;;;;;;2.20;1.20;;;17.40;1.00;;;;;;5029029;28;20508;-77
2022/08/08 05:29:02;;;;;;;7.30;1.20;;;17.40;1.00;;;;;;5015205;28;20434;-77
2022/08/08 05:31:36;;;;;;;1.93;1.13;;;17.50;1.00;;;;;;5020028;28;20940;-77
2022/08/08 05:34:26;;;;;;;3.50;0.90;;;17.60;1.00;;;;;;5031396;28;20390;-77
2022/08/08 05:36:53;;;;;;;3.93;1.20;;;17.60;1.00;;;;;;5034237;28;20432;-77
2022/08/08 05:39:38;;;;;;;3.03;1.17;;;17.70;1.00;;;;;;5030749;28;20447;-77
2022/08/08 05:42:08;;;;;;;2.50;1.10;;;17.80;1.00;;;;;;5031074;28;20463;-77
2022/08/08 05:44:56;;;;;;;1.23;0.90;;;17.90;1.00;;;;;;5022716;28;20436;-77
2022/08/08 05:47:31;;;;;;;1.70;1.00;;;18.00;1.00;;;;;;5029857;28;20418;-77
2022/08/08 05:50:05;;;;;;;1.10;1.00;;;18.00;1.00;;;;;;5021910;28;20429;-79
2022/08/08 05:52:34;;;;;;;1.20;1.10;;;18.10;1.00;;;;;;5023639;28;20429;-78
2022/08/08 05:55:18;;;;;;;1.10;0.93;;;18.10;1.00;;;;;;5032557;28;20518;-78
2022/08/08 05:57:58;;;;;;;0.80;0.80;;;18.20;1.00;;;;;;5024527;28;20395;-78
2022/08/08 06:00:31;;;;;;;1.13;0.93;;;18.30;1.00;;;;;;5025010;28;20456;-79
2022/08/08 06:03:13;;;;;;;1.53;0.97;;;18.40;1.00;;;;;;5026775;28;20421;-79
2022/08/08 06:06:11;;;;;;;3.27;1.10;;;18.40;1.00;;;;;;5024379;28;20434;-80
2022/08/08 06:08:52;;;;;;;1.03;0.93;;;18.60;1.00;;;;;;5018861;28;20853;-80
2022/08/08 06:11:18;;;;;;;4.47;1.13;;;18.70;1.00;;;;;;5001705;28;20600;-80
2022/08/08 06:14:08;;;;;;;1.27;0.90;;;18.80;1.00;;;;;;5017695;28;20439;-80
2022/08/08 06:16:44;;;;;;;1.00;1.00;;;18.80;1.00;;;;;;5025969;28;20830;-80
2022/08/08 06:19:15;;;;;;;2.00;1.20;;;18.90;1.00;;;;;;5026126;28;20790;-79
2022/08/08 06:21:50;;;;;;;2.20;1.03;;;19.00;1.00;;;;;;5020829;28;20434;-79
2022/08/08 06:24:18;;;;;;;1.43;1.00;;;19.10;1.00;;;;;;5021480;28;20452;-79
2022/08/08 06:26:52;;;;;;;2.50;1.27;;;19.20;1.00;;;;;;5025022;28;20425;-78
2022/08/08 06:30:02;;;;;;;2.17;1.20;;;19.30;1.00;;;;;;5021550;28;20439;-78
2022/08/08 06:32:56;;;;;;;3.10;1.30;;;19.40;1.00;;;;;;4970291;28;20425;-78
2022/08/08 06:35:22;;;;;;;2.73;1.37;;;19.50;1.00;;;;;;4960032;28;20476;-78
2022/08/08 06:37:58;;;;;;;4.37;1.20;;;19.60;1.00;;;;;;4965680;28;20436;-79
2022/08/08 06:40:31;;;;;;;3.23;0.90;;;19.70;1.00;;;;;;4960425;28;20448;-79
2022/08/08 06:43:19;;;;;;;6.20;1.30;;;19.80;1.00;;;;;;4966352;28;20436;-78
2022/08/08 06:45:48;;;;;;;1.13;1.03;;;19.90;1.00;;;;;;4950206;29;20473;-78
2022/08/08 06:48:25;;;;;;;1.47;0.90;;;20.10;1.00;;;;;;4937104;29;20433;-78
2022/08/08 06:50:56;;;;;;;2.30;1.10;;;20.10;1.00;;;;;;4947898;29;20479;-80
2022/08/08 06:53:36;;;;;;;4.90;1.00;;;20.30;1.00;;;;;;4953259;29;20434;-80
2022/08/08 06:56:13;;;;;;;1.53;0.90;;;20.40;1.00;;;;;;4953236;29;20487;-80
2022/08/08 06:59:06;;;;;;;5.13;1.30;;;20.50;1.00;;;;;;4948198;29;20435;-80
2022/08/08 07:01:45;;;;;;;4.67;1.07;;;20.60;1.00;;;;;;4940701;29;20436;-80
2022/08/08 07:04:56;;;;;;;3.47;1.00;;;20.70;1.00;;;;;;4936721;29;20543;-79
2022/08/08 07:07:58;;;;;;;7.90;1.20;;;20.80;1.00;;;;;;4950466;28;20537;-78
2022/08/08 07:10:47;;;;;;;3.47;1.17;;;21.00;1.00;;;;;;5037995;28;20939;-78
2022/08/08 07:13:31;;;;;;;2.80;1.30;;;21.10;1.00;;;;;;5043848;28;20927;-78
2022/08/08 07:16:23;;;;;;;1.77;1.00;;;21.20;1.00;;;;;;5044092;28;20458;-78
2022/08/08 07:19:12;;;;;;;2.50;0.90;;;21.40;1.00;;;;;;5033112;28;20421;-79
2022/08/08 07:22:30;;;;;;;1.40;0.90;;;21.50;1.00;;;;;;5039188;28;20425;-79
2022/08/08 07:25:02;;;;;;;3.57;1.00;;;21.70;1.00;;;;;;5029348;28;20435;-79
2022/08/08 07:27:49;;;;;;;2.80;1.40;;;21.90;1.00;;;;;;5028162;28;20431;-78
2022/08/08 07:30:15;;;;;;;5.07;1.00;;;22.00;1.00;;;;;;5045923;28;20452;-78
2022/08/08 07:32:42;;;;;;;1.00;0.80;;;22.10;1.00;;;;;;5029933;28;20411;-78
2022/08/08 07:35:09;;;;;;;6.93;1.10;;;22.20;1.00;;;;;;5036817;28;20208;-79
2022/08/08 07:37:38;;;;;;;7.90;1.30;;;22.30;1.00;;;;;;5034404;28;20468;-78
2022/08/08 07:40:05;;;;;;;3.07;1.00;;;22.40;1.00;;;;;;5035761;28;20427;-78
2022/08/08 07:42:39;;;;;;;1.90;1.10;;;22.50;1.00;;;;;;5038777;28;20446;-78
2022/08/08 07:45:24;;;;;;;2.23;1.53;;;22.60;1.00;;;;;;5028995;28;20856;-79
2022/08/08 07:47:57;;;;;;;6.40;1.10;;;22.70;1.00;;;;;;5023643;28;20425;-78
2022/08/08 07:50:59;;;;;;;1.90;1.13;;;22.80;1.00;;;;;;5019350;28;20511;-79
2022/08/08 07:54:20;;;;;;;3.67;0.80;;;23.00;1.00;;;;;;5034397;28;20406;-78
2022/08/08 07:57:22;;;;;;;2.67;1.10;;;23.10;1.00;;;;;;5033067;28;20836;-78
2022/08/08 08:00:08;;;;;;;6.17;0.80;;;23.20;1.00;;;;;;5053703;28;20835;-79
2022/08/08 08:03:09;;;;;;;0.80;0.80;;;23.20;1.00;;;;;;5043557;28;20414;-79
2022/08/08 08:06:02;;;;;;;7.73;1.00;;;23.40;1.00;;;;;;5049081;28;20525;-79
2022/08/08 08:08:52;;;;;;;1.13;0.80;;;23.40;1.00;;;;;;5036608;28;20443;-78
2022/08/08 08:11:22;;;;;;;5.60;1.00;;;23.60;1.00;;;;;;5052968;28;20608;-79
2022/08/08 08:14:29;;;;;;;4.17;0.97;;;23.70;1.00;;;;;;5053473;28;20443;-78
2022/08/08 08:16:55;;;;;;;10.43;1.00;;;23.80;1.00;;;;;;5048626;28;20452;-78
2022/08/08 08:19:31;;;;;;;4.87;1.03;;;23.80;1.00;;;;;;5037820;28;20436;-79
2022/08/08 08:22:00;;;;;;;2.80;1.30;;;24.00;1.00;;;;;;5045477;28;20425;-80
2022/08/08 08:24:48;;;;;;;1.93;0.90;;;24.00;1.00;;;;;;5051982;28;20423;-79
2022/08/08 08:27:54;;;;;;;2.10;1.20;;;24.10;1.00;;;;;;5046649;28;20496;-80
2022/08/08 08:30:30;;;;;;;6.87;1.40;;;24.20;1.00;;;;;;5030450;28;20437;-80
2022/08/08 08:33:06;;;;;;;3.33;0.90;;;24.30;1.00;;;;;;5021504;28;20442;-80
2022/08/08 08:35:32;;;;;;;0.90;0.90;;;24.50;1.00;;;;;;5032949;28;20824;-79
2022/08/08 08:38:36;;;;;;;3.20;0.90;;;24.60;1.00;;;;;;5028216;28;20434;-79
2022/08/08 08:41:19;;;;;;;1.73;1.10;;;24.70;1.00;;;;;;5027084;28;20315;-78
2022/08/08 08:43:49;;;;;;;2.73;1.10;;;24.90;1.00;;;;;;5025271;28;20500;-79
2022/08/08 08:46:19;;;;;;;4.20;1.20;;;25.00;1.00;;;;;;5033201;28;21014;-79
2022/08/08 08:48:48;;;;;;;6.43;0.90;;;25.00;1.00;;;;;;5028148;28;20426;-79
2022/08/08 08:51:19;;;;;;;1.10;0.90;;;25.10;1.00;;;;;;5021614;28;20496;-80
2022/08/08 08:54:02;;;;;;;1.43;0.80;;;25.10;1.00;;;;;;5016217;28;20875;-80
2022/08/08 08:56:31;;;;;;;0.90;0.90;;;25.20;1.00;;;;;;5021340;28;20548;-80
2022/08/08 08:59:07;;;;;;;3.33;1.23;;;25.40;1.00;;;;;;5030001;28;20422;-80
2022/08/08 09:01:43;;;;;;;2.00;0.90;;;25.40;1.00;;;;;;5022156;28;20820;-80
2022/08/08 09:04:43;;;;;;;9.03;1.00;;;25.60;1.00;;;;;;5015090;28;20498;-82
2022/08/08 09:07:18;;;;;;;6.53;1.00;;;25.70;1.00;;;;;;5027641;28;20435;-81
2022/08/08 09:09:48;;;;;;;1.10;0.93;;;25.80;1.00;;;;;;5019355;28;20442;-80
2022/08/08 09:12:17;;;;;;;2.30;1.00;;;25.90;1.00;;;;;;5017355;28;20427;-79
2022/08/08 09:14:57;;;;;;;1.87;0.87;;;26.00;1.00;;;;;;5028308;28;20527;-79
2022/08/08 09:17:24;;;;;;;7.80;1.17;;;26.20;1.00;;;;;;5024074;28;20447;-79
2022/08/08 09:20:08;;;;;;;2.07;1.00;;;26.30;1.00;;;;;;5029089;28;20426;-79
2022/08/08 09:22:36;;;;;;;1.17;1.00;;;26.40;1.00;;;;;;5027218;28;20418;-79
2022/08/08 09:25:07;;;;;;;2.33;1.00;;;26.50;1.00;;;;;;5020972;28;20425;-79
2022/08/08 09:27:43;;;;;;;1.30;0.90;;;26.60;1.00;;;;;;5021667;28;20498;-80
2022/08/08 09:30:15;;;;;;;1.00;0.90;;;26.70;1.00;;;;;;5014758;28;20920;-81
2022/08/08 09:32:56;;;;;;;1.17;1.00;;;26.80;1.00;;;;;;5024287;28;20435;-81
2022/08/08 09:35:27;;;;;;;5.40;1.03;;;26.90;1.00;;;;;;5025246;28;20457;-77
2022/08/08 09:38:08;;;;;;;1.37;0.80;;;26.90;1.00;;;;;;5029832;28;20484;-78
2022/08/08 09:40:41;;;;;;;1.33;0.80;;;27.00;1.00;;;;;;5027352;28;20426;-78
2022/08/08 09:43:24;;;;;;;1.73;1.00;;;27.20;1.00;;;;;;5026583;28;20434;-79
2022/08/08 09:46:14;;;;;;;6.87;0.90;;;27.20;1.00;;;;;;5021160;28;20427;-80
2022/08/08 09:48:44;;;;;;;2.93;1.07;;;27.30;1.00;;;;;;5033877;28;20419;-78
2022/08/08 09:51:29;;;;;;;1.90;1.27;;;27.40;1.00;;;;;;5021714;28;20419;-78
2022/08/08 09:54:02;;;;;;;3.90;1.10;;;27.60;1.00;;;;;;5033609;28;20426;-78
2022/08/08 09:56:41;;;;;;;1.67;0.90;;;27.70;1.00;;;;;;5034241;28;20443;-78
2022/08/08 09:59:11;;;;;;;2.13;1.07;;;27.80;1.00;;;;;;5032946;28;20426;-76
2022/08/08 10:01:46;;;;;;;2.80;0.93;;;27.80;1.00;;;;;;5034348;28;20413;-76
2022/08/08 10:04:14;;;;;;;2.80;0.90;;;28.00;1.00;;;;;;5026821;28;20415;-76
2022/08/08 10:06:42;;;;;;;1.67;1.10;;;28.10;1.00;;;;;;5018268;28;20420;-76
2022/08/08 10:09:40;;;;;;;1.73;1.00;;;28.10;1.00;;;;;;5024944;28;20916;-76
2022/08/08 10:12:07;;;;;;;2.60;1.17;;;28.20;1.00;;;;;;5025963;28;20860;-77
2022/08/08 10:14:35;;;;;;;0.90;0.90;;;28.10;1.00;;;;;;5024256;28;20467;-77
2022/08/08 10:17:08;;;;;;;1.63;0.90;;;28.10;1.00;;;;;;5024570;28;20495;-77
2022/08/08 10:19:39;;;;;;;3.27;1.13;;;28.20;1.00;;;;;;5026169;28;20441;-78
2022/08/08 10:22:15;;;;;;;3.27;1.03;;;28.40;1.00;;;;;;5026092;28;20427;-80
2022/08/08 10:24:51;;;;;;;5.80;1.10;;;28.50;1.00;;;;;;5012924;28;20432;-79
2022/08/08 10:27:42;;;;;;;2.03;1.00;;;28.60;1.00;;;;;;5024786;28;20990;-79
2022/08/08 10:30:21;;;;;;;2.13;1.20;;;28.70;1.00;;;;;;5021256;28;20539;-79
2022/08/08 10:32:58;;;;;;;0.90;0.90;;;28.60;1.00;;;;;;5029222;28;20779;-80
2022/08/08 10:35:30;;;;;;;2.40;1.00;;;28.70;1.00;;;;;;5030561;28;20466;-80
2022/08/08 10:38:13;;;;;;;1.90;1.00;;;28.70;1.00;;;;;;5028957;28;20471;-86
2022/08/08 10:40:50;;;;;;;1.00;0.90;;;28.90;1.00;;;;;;5031100;28;20430;-80
2022/08/08 10:43:19;;;;;;;3.80;0.90;;;28.90;1.00;;;;;;5014943;28;20889;-80
2022/08/08 10:45:49;;;;;;;1.20;1.10;;;29.00;1.00;;;;;;5023682;28;20430;-80
2022/08/08 10:48:45;;;;;;;3.43;1.03;;;29.10;1.00;;;;;;5030998;28;20512;-88
2022/08/08 10:51:19;;;;;;;2.50;0.80;;;29.20;1.00;;;;;;5011483;28;20441;-85
2022/08/08 10:53:51;;;;;;;1.33;0.80;;;29.30;1.00;;;;;;5031414;28;20503;-78
2022/08/08 10:56:18;;;;;;;1.53;0.83;;;29.40;1.00;;;;;;5031361;28;20557;-78
2022/08/08 10:59:08;;;;;;;1.20;0.80;;;29.50;1.00;;;;;;5018229;28;20418;-79
2022/08/08 11:01:40;;;;;;;1.40;0.90;;;29.60;1.00;;;;;;5029308;28;20524;-78
2022/08/08 11:04:12;;;;;;;1.57;0.90;;;29.60;1.00;;;;;;5026663;28;20450;-78
2022/08/08 11:06:38;;;;;;;1.27;0.80;;;29.60;1.00;;;;;;5017378;28;20429;-85
2022/08/08 11:09:18;;;;;;;1.50;1.03;;;29.70;1.00;;;;;;5016542;28;20848;-86
2022/08/08 11:11:56;;;;;;;0.97;0.80;;;29.80;1.00;;;;;;5034616;28;20798;-82
2022/08/08 11:14:24;;;;;;;6.20;0.87;;;30.00;1.00;;;;;;5034958;28;20426;-82
2022/08/08 11:16:55;;;;;;;1.30;0.90;;;30.10;1.00;;;;;;5034387;28;20462;-83
2022/08/08 11:19:26;;;;;;;1.77;1.17;;;30.10;1.00;;;;;;5009420;28;20506;-81
2022/08/08 11:21:54;;;;;;;4.33;0.90;;;30.10;1.00;;;;;;5021803;28;20517;-83
2022/08/08 11:24:37;;;;;;;1.73;0.80;;;30.10;1.00;;;;;;5039269;28;20479;-81
2022/08/08 11:27:04;;;;;;;3.53;1.00;;;30.00;1.00;;;;;;5038672;28;20437;-80
2022/08/08 11:29:31;;;;;;;0.97;0.97;;;30.10;1.00;;;;;;5016933;28;20445;-79
2022/08/08 11:32:02;;;;;;;0.80;0.80;;;30.10;1.00;;;;;;5027034;28;20448;-77
2022/08/08 11:34:49;;;;;;;2.60;0.90;;;30.10;1.00;;;;;;5024137;28;20438;-79
2022/08/08 11:37:18;;;;;;;3.27;0.90;;;30.10;1.00;;;;;;5035425;28;20514;-77
2022/08/08 11:39:44;;;;;;;0.93;0.90;;;30.20;1.00;;;;;;5026001;28;20961;-82
2022/08/08 11:42:11;;;;;;;1.43;0.80;;;30.20;1.00;;;;;;5021174;28;20434;-76
2022/08/08 11:44:38;;;;;;;1.17;0.87;;;30.20;1.00;;;;;;5028121;28;20191;-77
2022/08/08 11:47:04;;;;;;;1.10;0.80;;;30.30;1.00;;;;;;5020857;28;20510;-79
2022/08/08 11:49:31;;;;;;;1.00;1.00;;;30.40;1.00;;;;;;5027874;28;20459;-74
2022/08/08 11:51:57;;;;;;;1.83;0.70;;;30.30;1.00;;;;;;5030169;28;20164;-78
2022/08/08 11:54:32;;;;;;;3.33;1.20;;;30.40;1.00;;;;;;5024590;28;20446;-73
2022/08/08 11:57:12;;;;;;;1.17;0.80;;;30.40;1.00;;;;;;5024641;28;20450;-73
2022/08/08 11:59:43;;;;;;;0.80;0.80;;;30.50;1.00;;;;;;5028656;28;20426;-74
2022/08/08 12:02:09;;;;;;;1.10;0.90;;;30.50;1.00;;;;;;5029697;28;20428;-72
2022/08/08 12:04:39;;;;;;;1.47;1.00;;;30.60;1.00;;;;;;5024287;28;20454;-73
2022/08/08 12:07:56;;;;;;;5.63;0.90;;;30.60;1.00;;;;;;5022269;28;20557;-75
2022/08/08 12:10:24;;;;;;;1.63;0.90;;;30.70;1.00;;;;;;5039265;28;20856;-74
2022/08/08 12:13:10;;;;;;;1.07;0.90;;;30.60;1.00;;;;;;5039807;28;20890;-74
2022/08/08 12:15:39;;;;;;;0.60;0.60;;;30.60;1.00;;;;;;5048047;28;20589;-74
2022/08/08 12:18:18;;;;;;;6.57;0.90;;;30.50;1.00;;;;;;5053778;28;20423;-75
2022/08/08 12:20:44;;;;;;;3.90;1.50;;;30.50;1.00;;;;;;5052543;28;20436;-72
2022/08/08 12:23:10;;;;;;;1.73;1.10;;;30.60;1.00;;;;;;5051274;28;20414;-80
2022/08/08 12:25:42;;;;;;;0.93;0.80;;;30.50;1.00;;;;;;5053616;28;20172;-80
2022/08/08 12:28:14;;;;;;;1.43;1.00;;;30.60;1.00;;;;;;5053424;28;20176;-81
2022/08/08 12:31:09;;;;;;;2.03;1.10;;;30.80;1.00;;;;;;5046768;28;20430;-81
2022/08/08 12:33:50;;;;;;;2.10;0.90;;;30.80;1.00;;;;;;5040271;28;20429;-81
2022/08/08 12:36:18;;;;;;;7.30;1.07;;;31.00;1.00;;;;;;5053097;28;21021;-81
2022/08/08 12:38:49;;;;;;;3.60;0.80;;;31.00;1.00;;;;;;5053778;28;20422;-75
2022/08/08 12:41:24;;;;;;;0.70;0.70;;;31.10;1.00;;;;;;5043334;28;20905;-76
2022/08/08 12:44:04;;;;;;;1.57;0.80;;;31.20;1.00;;;;;;5052860;28;20463;-76
2022/08/08 12:46:30;;;;;;;1.73;0.97;;;31.30;1.00;;;;;;5038397;28;20434;-74
2022/08/08 12:49:04;;;;;;;2.40;0.83;;;31.40;1.00;;;;;;5024870;28;20416;-78
2022/08/08 12:51:44;;;;;;;3.47;1.07;;;31.40;1.00;;;;;;5020553;28;20519;-79
2022/08/08 12:54:21;;;;;;;2.50;0.87;;;31.50;1.00;;;;;;5026134;28;20485;-81
2022/08/08 12:56:49;;;;;;;0.70;0.70;;;31.60;1.00;;;;;;5022630;28;20814;-80
2022/08/08 12:59:49;;;;;;;0.73;0.73;;;31.60;1.00;;;;;;5021861;28;20404;-83
2022/08/08 13:02:27;;;;;;;1.27;0.80;;;31.60;1.00;;;;;;5015506;28;20408;-81
2022/08/08 13:05:05;;;;;;;3.23;0.70;;;31.60;1.00;;;;;;5015194;28;20400;-83
2022/08/08 13:07:39;;;;;;;3.67;0.80;;;31.50;1.00;;;;;;5029341;28;20858;-75
2022/08/08 13:10:15;;;;;;;2.13;0.90;;;31.60;1.00;;;;;;5027162;28;20451;-73
2022/08/08 13:12:44;;;;;;;0.70;0.70;;;31.70;1.00;;;;;;5029769;28;20936;-73
2022/08/08 13:15:13;;;;;;;1.30;0.80;;;31.70;1.00;;;;;;5016623;28;20463;-72
2022/08/08 13:17:39;;;;;;;1.13;0.80;;;31.80;1.00;;;;;;5024393;28;20432;-74
2022/08/08 13:20:12;;;;;;;5.07;0.70;;;31.90;1.00;;;;;;5025447;28;20925;-74
2022/08/08 13:22:49;;;;;;;3.43;0.90;;;32.00;1.00;;;;;;5021743;28;20722;-81
2022/08/08 13:25:14;;;;;;;2.83;0.70;;;32.10;1.00;;;;;;5019304;28;20430;-74
2022/08/08 13:27:41;;;;;;;0.90;0.90;;;32.10;1.00;;;;;;5029089;28;20435;-75
2022/08/08 13:30:07;;;;;;;3.23;0.97;;;32.10;1.00;;;;;;5026225;28;20659;-75
2022/08/08 13:32:35;;;;;;;2.30;1.00;;;32.10;1.00;;;;;;5028151;28;20415;-75
2022/08/08 13:35:02;;;;;;;2.63;0.90;;;31.80;1.00;;;;;;5029475;28;20416;-75
2022/08/08 13:37:29;;;;;;;0.70;0.60;;;31.70;1.00;;;;;;5031102;28;20777;-75
2022/08/08 13:39:56;;;;;;;2.50;0.80;;;31.80;1.00;;;;;;5027016;28;20411;-75
2022/08/08 13:42:24;;;;;;;0.60;0.60;;;31.90;1.00;;;;;;5027612;28;20449;-75
2022/08/08 13:44:57;;;;;;;1.93;0.60;;;32.10;1.00;;;;;;5028790;28;20571;-75
2022/08/08 13:47:26;;;;;;;2.20;0.63;;;32.10;1.00;;;;;;5027233;28;20602;-75
2022/08/08 13:50:01;;;;;;;0.80;0.70;;;32.20;1.00;;;;;;5022879;28;20774;-77
2022/08/08 13:52:26;;;;;;;23.80;1.63;;;32.30;1.00;;;;;;5018699;28;20427;-75
2022/08/08 13:55:18;;;;;;;1.17;0.70;;;32.50;1.00;;;;;;5020286;28;20480;-83
2022/08/08 13:57:48;;;;;;;1.10;0.60;;;32.40;1.00;;;;;;5018857;28;20659;-84
2022/08/08 14:00:17;;;;;;;1.33;0.80;;;32.40;1.00;;;;;;5016137;28;20435;-75
2022/08/08 14:02:43;;;;;;;1.73;1.00;;;32.50;1.00;;;;;;5020955;28;20431;-75
2022/08/08 14:05:18;;;;;;;1.10;0.80;;;32.50;1.00;;;;;;5028087;28;20412;-75
2022/08/08 14:07:46;;;;;;;0.90;0.90;;;32.60;1.00;;;;;;5015309;28;20422;-75